createdAt,value
2022-08-19T00:01:55.512Z,16.50
2022-08-19T00:04:27.379Z,16.40
2022-08-19T00:06:54.869Z,16.40
2022-08-19T00:09:23.853Z,16.40
2022-08-19T00:11:52.289Z,16.40
2022-08-19T00:14:21.482Z,16.50
2022-08-19T00:16:49.529Z,16.50
2022-08-19T00:19:17.478Z,16.50
2022-08-19T00:21:45.064Z,16.40
2022-08-19T00:24:14.810Z,16.40
2022-08-19T00:26:44.978Z,16.30
2022-08-19T00:29:15.294Z,16.20
2022-08-19T00:31:44.007Z,16.20
2022-08-19T00:34:13.060Z,16.10
2022-08-19T00:36:41.443Z,16.10
2022-08-19T00:39:09.816Z,16.10
2022-08-19T00:41:37.572Z,16.00
2022-08-19T00:44:15.935Z,16.10
2022-08-19T00:46:55.285Z,16.00
2022-08-19T00:49:28.535Z,16.00
2022-08-19T00:52:01.518Z,16.00
2022-08-19T00:54:31.110Z,16.00
2022-08-19T00:57:00.361Z,16.10
2022-08-19T00:59:59.443Z,16.00
2022-08-19T01:02:18.038Z,16.00
2022-08-19T01:04:45.430Z,16.10
2022-08-19T01:07:15.229Z,16.00
2022-08-19T01:09:47.721Z,16.00
2022-08-19T01:12:15.586Z,16.10
2022-08-19T01:14:43.385Z,16.00
2022-08-19T01:17:12.641Z,16.00
2022-08-19T01:19:43.930Z,15.90
2022-08-19T01:22:32.831Z,15.90
2022-08-19T01:25:02.105Z,16.00
2022-08-19T01:27:43.750Z,16.00
2022-08-19T01:30:14.985Z,15.90
2022-08-19T01:32:42.852Z,15.80
2022-08-19T01:35:14.043Z,15.80
2022-08-19T01:37:50.650Z,15.80
2022-08-19T01:40:21.272Z,15.80
2022-08-19T01:42:50.187Z,15.80
2022-08-19T01:45:18.967Z,15.80
2022-08-19T01:48:01.019Z,15.70
2022-08-19T01:50:31.427Z,15.70
2022-08-19T01:53:05.937Z,15.80
2022-08-19T01:55:41.052Z,15.70
2022-08-19T01:58:23.635Z,15.70
2022-08-19T02:00:51.087Z,15.60
2022-08-19T02:03:18.658Z,15.60
2022-08-19T02:05:46.669Z,15.70
2022-08-19T02:08:14.000Z,15.70
2022-08-19T02:10:43.633Z,15.70
2022-08-19T02:13:12.977Z,15.70
2022-08-19T02:15:41.007Z,15.70
2022-08-19T02:18:09.110Z,15.70
2022-08-19T02:20:37.945Z,15.70
2022-08-19T02:23:06.199Z,15.60
2022-08-19T02:25:42.839Z,15.60
2022-08-19T02:28:10.154Z,15.60
2022-08-19T02:30:39.084Z,15.60
2022-08-19T02:33:06.493Z,15.60
2022-08-19T02:35:33.798Z,15.50
2022-08-19T02:38:19.961Z,15.50
2022-08-19T02:40:55.104Z,15.50
2022-08-19T02:43:23.758Z,15.50
2022-08-19T02:45:52.259Z,15.50
2022-08-19T02:48:22.095Z,15.50
2022-08-19T02:50:55.977Z,15.60
2022-08-19T02:53:25.462Z,15.60
2022-08-19T02:55:53.144Z,15.60
2022-08-19T02:58:22.312Z,15.50
2022-08-19T03:00:53.144Z,15.60
2022-08-19T03:03:21.613Z,15.60
2022-08-19T03:05:56.492Z,15.60
2022-08-19T03:08:26.503Z,15.50
2022-08-19T03:10:54.814Z,15.50
2022-08-19T03:13:24.246Z,15.50
2022-08-19T03:15:51.922Z,15.50
2022-08-19T03:18:19.295Z,15.50
2022-08-19T03:20:49.379Z,15.50
2022-08-19T03:23:17.930Z,15.60
2022-08-19T03:25:47.839Z,15.70
2022-08-19T03:28:30.557Z,15.60
2022-08-19T03:31:01.410Z,15.70
2022-08-19T03:33:30.207Z,15.70
2022-08-19T03:36:10.969Z,15.60
2022-08-19T03:38:50.710Z,15.60
2022-08-19T03:41:26.500Z,15.60
2022-08-19T03:44:17.875Z,15.60
2022-08-19T03:46:48.255Z,15.60
2022-08-19T03:49:16.234Z,15.60
2022-08-19T03:51:47.864Z,15.60
2022-08-19T03:54:18.093Z,15.60
2022-08-19T03:56:47.666Z,15.60
2022-08-19T03:59:26.774Z,15.50
2022-08-19T04:01:56.562Z,15.50
2022-08-19T04:04:25.081Z,15.50
2022-08-19T04:06:57.232Z,15.50
2022-08-19T04:09:25.010Z,15.50
2022-08-19T04:11:54.990Z,15.50
2022-08-19T04:14:25.928Z,15.60
2022-08-19T04:16:53.830Z,15.60
2022-08-19T04:19:21.519Z,15.60
2022-08-19T04:21:51.291Z,15.50
2022-08-19T04:24:19.335Z,15.40
2022-08-19T04:26:47.556Z,15.40
2022-08-19T04:29:19.617Z,15.40
2022-08-19T04:31:47.481Z,15.40
2022-08-19T04:34:18.487Z,15.40
2022-08-19T04:36:45.953Z,15.40
2022-08-19T04:39:16.876Z,15.30
2022-08-19T04:42:04.436Z,15.30
2022-08-19T04:44:39.875Z,15.40
2022-08-19T04:47:14.323Z,15.40
2022-08-19T04:49:42.815Z,15.60
2022-08-19T04:52:10.167Z,15.60
2022-08-19T04:54:39.424Z,15.70
2022-08-19T04:57:11.366Z,15.70
2022-08-19T04:59:40.354Z,15.80
2022-08-19T05:02:09.681Z,15.90
2022-08-19T05:04:40.161Z,16.00
2022-08-19T05:07:09.087Z,16.10
2022-08-19T05:09:57.939Z,16.10
2022-08-19T05:12:28.867Z,16.20
2022-08-19T05:14:58.756Z,16.30
2022-08-19T05:17:29.620Z,16.40
2022-08-19T05:20:17.790Z,16.50
2022-08-19T05:22:47.635Z,16.50
2022-08-19T05:25:19.920Z,16.60
2022-08-19T05:27:47.850Z,16.70
2022-08-19T05:30:15.916Z,16.80
2022-08-19T05:32:43.856Z,16.90
2022-08-19T05:35:12.665Z,16.90
2022-08-19T05:37:43.437Z,17.00
2022-08-19T05:40:11.305Z,17.10
2022-08-19T05:42:39.155Z,17.20
2022-08-19T05:45:07.482Z,17.30
2022-08-19T05:47:35.998Z,17.50
2022-08-19T05:50:09.663Z,17.60
2022-08-19T05:52:39.163Z,17.60
2022-08-19T05:55:11.506Z,17.60
2022-08-19T05:57:39.330Z,17.80
2022-08-19T06:00:11.265Z,18.40
2022-08-19T06:02:39.755Z,19.40
2022-08-19T06:05:10.001Z,19.80
2022-08-19T06:07:38.113Z,19.80
2022-08-19T06:10:08.216Z,19.70
2022-08-19T06:12:36.539Z,19.40
2022-08-19T06:15:15.434Z,19.10
2022-08-19T06:17:45.184Z,19.00
2022-08-19T06:20:15.923Z,19.00
2022-08-19T06:22:53.482Z,19.50
2022-08-19T06:25:21.052Z,20.40
2022-08-19T06:28:13.645Z,21.40
2022-08-19T06:30:37.294Z,21.60
2022-08-19T06:33:04.829Z,21.50
2022-08-19T06:35:32.211Z,21.50
2022-08-19T06:38:00.310Z,21.30
2022-08-19T06:40:28.480Z,21.10
2022-08-19T06:42:57.217Z,20.90
2022-08-19T06:45:33.933Z,21.00
2022-08-19T06:48:03.357Z,21.10
2022-08-19T06:50:30.875Z,21.30
2022-08-19T06:52:58.238Z,21.60
2022-08-19T06:55:33.403Z,21.70
2022-08-19T06:58:04.730Z,22.20
2022-08-19T07:00:32.587Z,22.80
2022-08-19T07:03:06.193Z,22.90
2022-08-19T07:05:45.447Z,23.00
2022-08-19T07:08:14.198Z,23.10
2022-08-19T07:10:45.599Z,23.00
2022-08-19T07:13:13.243Z,22.90
2022-08-19T07:15:40.614Z,22.70
2022-08-19T07:18:08.074Z,23.10
2022-08-19T07:20:42.132Z,23.30
2022-08-19T07:23:16.063Z,23.30
2022-08-19T07:25:44.340Z,23.90
2022-08-19T07:28:24.038Z,24.10
2022-08-19T07:30:52.834Z,23.70
2022-08-19T07:33:21.175Z,24.20
2022-08-19T07:35:48.664Z,24.70
2022-08-19T07:38:17.032Z,24.90
2022-08-19T07:40:47.089Z,24.60
2022-08-19T07:43:17.384Z,25.30
2022-08-19T07:45:46.344Z,26.00
2022-08-19T07:48:15.325Z,26.90
2022-08-19T07:50:42.782Z,26.90
2022-08-19T07:53:10.113Z,27.60
2022-08-19T07:55:41.202Z,29.30
2022-08-19T07:58:12.528Z,30.00
2022-08-19T08:00:40.547Z,30.10
2022-08-19T08:03:09.498Z,30.00
2022-08-19T08:05:55.376Z,30.70
2022-08-19T08:08:44.363Z,31.80
2022-08-19T08:11:20.588Z,32.50
2022-08-19T08:14:00.555Z,31.90
2022-08-19T08:16:32.874Z,31.70
2022-08-19T08:19:02.332Z,32.20
2022-08-19T08:21:29.862Z,31.50
2022-08-19T08:23:57.280Z,32.00
2022-08-19T08:26:26.004Z,33.00
2022-08-19T08:28:53.935Z,33.00
2022-08-19T08:31:21.539Z,33.30
2022-08-19T08:33:49.062Z,31.40
2022-08-19T08:36:17.423Z,31.00
2022-08-19T08:38:46.851Z,31.00
2022-08-19T08:41:35.339Z,30.90
2022-08-19T08:44:05.421Z,30.90
2022-08-19T08:46:58.476Z,30.20
2022-08-19T08:49:48.327Z,30.50
2022-08-19T08:52:25.191Z,30.90
2022-08-19T08:55:04.184Z,30.60
2022-08-19T08:57:49.943Z,30.20
2022-08-19T09:00:28.368Z,31.10
2022-08-19T09:02:58.310Z,32.00
2022-08-19T09:05:48.327Z,32.40
2022-08-19T09:08:34.269Z,32.00
2022-08-19T09:11:07.421Z,32.90
2022-08-19T09:14:03.921Z,34.00
2022-08-19T09:16:31.529Z,34.50
2022-08-19T09:19:06.360Z,35.00
2022-08-19T09:21:34.262Z,33.40
2022-08-19T09:24:03.320Z,33.40
2022-08-19T09:26:47.133Z,33.50
2022-08-19T09:29:22.660Z,34.40
2022-08-19T09:31:50.948Z,34.60
2022-08-19T09:34:22.227Z,34.50
2022-08-19T09:36:54.537Z,33.90
2022-08-19T09:39:22.900Z,34.90
2022-08-19T09:41:50.982Z,33.70
2022-08-19T09:44:21.189Z,35.00
2022-08-19T09:46:49.621Z,34.80
2022-08-19T09:49:18.914Z,34.70
2022-08-19T09:51:51.213Z,35.50
2022-08-19T09:54:23.742Z,36.50
2022-08-19T09:56:53.330Z,36.10
2022-08-19T09:59:21.330Z,37.30
2022-08-19T10:01:48.758Z,36.40
2022-08-19T10:04:20.542Z,37.20
2022-08-19T10:06:53.738Z,34.30
2022-08-19T10:09:33.533Z,32.90
2022-08-19T10:12:04.177Z,31.30
2022-08-19T10:14:34.449Z,32.40
2022-08-19T10:17:17.484Z,32.50
2022-08-19T10:19:55.600Z,32.70
2022-08-19T10:22:23.818Z,33.40
2022-08-19T10:24:53.770Z,34.40
2022-08-19T10:27:21.806Z,35.00
2022-08-19T10:29:49.132Z,36.10
2022-08-19T10:32:16.895Z,35.60
2022-08-19T10:34:48.886Z,34.90
2022-08-19T10:37:28.805Z,35.60
2022-08-19T10:39:59.139Z,34.80
2022-08-19T10:42:26.589Z,33.90
2022-08-19T10:44:53.981Z,33.70
2022-08-19T10:47:24.994Z,32.00
2022-08-19T10:50:13.971Z,30.40
2022-08-19T10:52:49.313Z,29.50
2022-08-19T10:55:42.353Z,29.30
2022-08-19T10:58:18.825Z,28.80
2022-08-19T11:00:55.774Z,28.80
2022-08-19T11:03:24.219Z,28.70
2022-08-19T11:06:06.795Z,29.00
2022-08-19T11:08:35.877Z,28.20
2022-08-19T11:11:04.872Z,27.90
2022-08-19T11:13:38.236Z,27.80
2022-08-19T11:16:09.274Z,27.90
2022-08-19T11:18:39.453Z,28.00
2022-08-19T11:21:11.799Z,28.10
2022-08-19T11:23:39.587Z,28.10
2022-08-19T11:26:07.578Z,27.80
2022-08-19T11:28:35.177Z,27.80
2022-08-19T11:31:04.274Z,27.80
2022-08-19T11:33:33.620Z,27.90
2022-08-19T11:36:02.074Z,28.40
2022-08-19T11:38:30.179Z,28.50
2022-08-19T11:40:59.849Z,28.20
2022-08-19T11:43:28.255Z,27.50
2022-08-19T11:45:56.710Z,27.60
2022-08-19T11:48:25.179Z,27.40
2022-08-19T11:50:56.301Z,27.60
2022-08-19T11:53:24.786Z,27.40
2022-08-19T11:55:57.162Z,27.10
2022-08-19T11:58:25.812Z,27.10
2022-08-19T12:00:53.827Z,27.10
2022-08-19T12:03:21.716Z,27.00
2022-08-19T12:05:49.024Z,27.00
2022-08-19T12:08:17.076Z,26.90
2022-08-19T12:10:46.266Z,26.90
2022-08-19T12:13:19.237Z,26.90
2022-08-19T12:15:48.767Z,27.00
2022-08-19T12:18:16.344Z,27.10
2022-08-19T12:20:44.637Z,27.10
2022-08-19T12:23:12.262Z,27.30
2022-08-19T12:25:52.426Z,27.10
2022-08-19T12:28:25.288Z,27.00
2022-08-19T12:30:53.030Z,26.90
2022-08-19T12:33:20.723Z,27.10
2022-08-19T12:35:48.363Z,27.30
2022-08-19T12:38:15.745Z,27.20
2022-08-19T12:40:46.077Z,27.20
2022-08-19T12:43:14.761Z,27.10
2022-08-19T12:45:43.464Z,27.00
2022-08-19T12:48:31.390Z,26.90
2022-08-19T12:50:58.218Z,27.10
2022-08-19T12:53:25.855Z,27.20
2022-08-19T12:55:58.113Z,27.00
2022-08-19T12:58:27.379Z,27.00
2022-08-19T13:00:55.172Z,27.10
2022-08-19T13:03:30.200Z,27.20
2022-08-19T13:05:57.760Z,27.10
2022-08-19T13:08:25.175Z,27.00
2022-08-19T13:10:52.488Z,27.20
2022-08-19T13:13:19.931Z,27.00
2022-08-19T13:15:48.442Z,27.00
2022-08-19T13:18:15.783Z,26.80
2022-08-19T13:20:43.473Z,26.90
2022-08-19T13:23:20.064Z,27.00
2022-08-19T13:25:58.129Z,27.00
2022-08-19T13:28:29.154Z,27.20
2022-08-19T13:31:15.266Z,27.10
2022-08-19T13:33:42.675Z,26.90
2022-08-19T13:36:10.005Z,26.80
2022-08-19T13:38:38.846Z,26.40
2022-08-19T13:41:11.128Z,26.40
2022-08-19T13:43:39.634Z,26.50
2022-08-19T13:46:11.223Z,26.60
2022-08-19T13:48:38.585Z,26.50
2022-08-19T13:51:06.498Z,26.40
2022-08-19T13:53:33.946Z,26.50
2022-08-19T13:56:01.266Z,26.40
2022-08-19T13:58:28.613Z,26.40
2022-08-19T14:00:56.050Z,26.30
2022-08-19T14:03:24.562Z,26.40
2022-08-19T14:05:51.926Z,26.40
2022-08-19T14:08:19.375Z,26.30
2022-08-19T14:10:47.116Z,26.20
2022-08-19T14:13:21.150Z,26.10
2022-08-19T14:15:48.554Z,26.00
2022-08-19T14:18:17.970Z,26.30
2022-08-19T14:20:45.546Z,26.20
2022-08-19T14:23:14.551Z,26.00
2022-08-19T14:25:42.362Z,26.00
2022-08-19T14:28:10.049Z,25.90
2022-08-19T14:30:38.848Z,26.00
2022-08-19T14:33:08.055Z,26.00
2022-08-19T14:35:35.806Z,25.90
2022-08-19T14:38:05.804Z,25.80
2022-08-19T14:40:33.766Z,25.80
2022-08-19T14:43:05.175Z,25.70
2022-08-19T14:45:35.538Z,25.70
2022-08-19T14:48:05.628Z,25.80
2022-08-19T14:50:33.999Z,25.70
2022-08-19T14:53:11.903Z,25.70
2022-08-19T14:55:47.723Z,25.70
2022-08-19T14:58:29.370Z,25.60
2022-08-19T15:00:59.996Z,25.60
2022-08-19T15:03:27.995Z,25.60
2022-08-19T15:05:58.472Z,25.50
2022-08-19T15:08:28.136Z,25.40
2022-08-19T15:10:56.692Z,25.40
2022-08-19T15:13:25.606Z,25.40
2022-08-19T15:15:53.222Z,25.40
2022-08-19T15:18:21.381Z,25.40
2022-08-19T15:20:50.070Z,25.40
2022-08-19T15:23:19.309Z,25.30
2022-08-19T15:25:46.785Z,25.30
2022-08-19T15:28:17.238Z,25.50
2022-08-19T15:30:44.600Z,25.40
2022-08-19T15:33:15.183Z,25.40
2022-08-19T15:35:43.636Z,25.20
2022-08-19T15:38:13.943Z,25.30
2022-08-19T15:40:42.836Z,25.30
2022-08-19T15:43:11.327Z,25.40
2022-08-19T15:45:40.199Z,25.50
2022-08-19T15:48:08.112Z,25.40
2022-08-19T15:50:35.831Z,25.40
2022-08-19T15:53:09.371Z,25.50
2022-08-19T15:55:43.426Z,25.60
2022-08-19T15:58:32.702Z,25.50
2022-08-19T16:01:26.827Z,25.50
2022-08-19T16:04:16.096Z,25.70
2022-08-19T16:06:47.060Z,25.70
2022-08-19T16:09:16.087Z,25.70
2022-08-19T16:11:45.873Z,25.80
2022-08-19T16:14:19.006Z,25.80
2022-08-19T16:16:47.690Z,25.90
2022-08-19T16:19:17.739Z,26.10
2022-08-19T16:21:50.362Z,26.10
2022-08-19T16:24:20.031Z,26.10
2022-08-19T16:26:48.186Z,26.10
2022-08-19T16:29:33.224Z,25.90
2022-08-19T16:32:04.591Z,25.80
2022-08-19T16:34:32.199Z,25.50
2022-08-19T16:37:01.239Z,25.40
2022-08-19T16:39:28.678Z,25.20
2022-08-19T16:41:56.047Z,24.90
2022-08-19T16:44:23.412Z,24.70
2022-08-19T16:46:58.995Z,24.50
2022-08-19T16:49:54.076Z,24.40
2022-08-19T16:52:16.725Z,24.30
2022-08-19T16:54:44.818Z,24.10
2022-08-19T16:57:13.029Z,24.10
2022-08-19T16:59:48.504Z,24.10
2022-08-19T17:02:18.738Z,24.20
2022-08-19T17:04:55.708Z,24.10
2022-08-19T17:07:26.180Z,23.80
2022-08-19T17:09:53.624Z,23.30
2022-08-19T17:12:31.810Z,22.80
2022-08-19T17:15:04.080Z,22.80
2022-08-19T17:17:31.977Z,22.80
2022-08-19T17:20:01.200Z,22.80
2022-08-19T17:22:29.644Z,22.90
2022-08-19T17:24:58.240Z,23.00
2022-08-19T17:27:31.317Z,23.00
2022-08-19T17:30:05.122Z,23.20
2022-08-19T17:32:34.744Z,23.10
2022-08-19T17:35:04.019Z,23.20
2022-08-19T17:37:31.972Z,23.30
2022-08-19T17:39:59.371Z,23.50
2022-08-19T17:42:26.837Z,23.50
2022-08-19T17:44:54.278Z,23.30
2022-08-19T17:47:21.577Z,23.00
2022-08-19T17:49:48.988Z,22.70
2022-08-19T17:52:16.542Z,22.40
2022-08-19T17:54:44.321Z,22.10
2022-08-19T17:57:12.247Z,21.90
2022-08-19T17:59:40.027Z,21.70
2022-08-19T18:02:10.069Z,21.60
2022-08-19T18:04:39.163Z,21.50
2022-08-19T18:07:06.686Z,21.50
2022-08-19T18:09:42.393Z,21.60
2022-08-19T18:12:12.451Z,21.70
2022-08-19T18:14:41.139Z,21.80
2022-08-19T18:17:12.937Z,21.80
2022-08-19T18:19:43.233Z,21.80
2022-08-19T18:22:28.810Z,21.70
2022-08-19T18:24:57.755Z,21.50
2022-08-19T18:27:27.206Z,21.40
2022-08-19T18:29:59.151Z,21.30
2022-08-19T18:32:34.506Z,21.30
2022-08-19T18:35:05.782Z,21.40
2022-08-19T18:37:33.119Z,21.50
2022-08-19T18:40:18.946Z,21.50
2022-08-19T18:43:05.276Z,21.60
2022-08-19T18:45:51.426Z,21.60
2022-08-19T18:48:37.319Z,21.60
2022-08-19T18:51:06.506Z,21.70
2022-08-19T18:53:35.921Z,21.60
2022-08-19T18:56:03.881Z,21.70
2022-08-19T18:58:35.899Z,21.60
2022-08-19T19:01:16.103Z,21.60
2022-08-19T19:03:53.357Z,21.50
2022-08-19T19:06:28.941Z,21.50
2022-08-19T19:08:57.289Z,21.50
2022-08-19T19:11:32.435Z,21.50
2022-08-19T19:14:04.133Z,21.50
2022-08-19T19:16:32.007Z,21.40
2022-08-19T19:18:59.565Z,21.40
2022-08-19T19:21:28.370Z,21.30
2022-08-19T19:23:58.239Z,21.30
2022-08-19T19:26:25.778Z,21.30
2022-08-19T19:28:53.193Z,21.20
2022-08-19T19:31:26.624Z,21.10
2022-08-19T19:33:57.176Z,21.10
2022-08-19T19:36:24.634Z,21.10
2022-08-19T19:38:52.734Z,21.10
2022-08-19T19:41:26.019Z,21.10
2022-08-19T19:44:29.433Z,21.10
2022-08-19T19:46:48.516Z,21.00
2022-08-19T19:49:16.205Z,21.00
2022-08-19T19:51:43.764Z,20.90
2022-08-19T19:54:13.729Z,20.90
2022-08-19T19:56:50.295Z,20.80
2022-08-19T19:59:18.255Z,20.80
2022-08-19T20:01:48.313Z,20.80
2022-08-19T20:04:17.242Z,20.80
2022-08-19T20:06:47.555Z,20.80
2022-08-19T20:09:19.720Z,20.80
2022-08-19T20:11:48.823Z,20.70
2022-08-19T20:14:25.711Z,20.70
2022-08-19T20:16:54.308Z,20.60
2022-08-19T20:19:26.010Z,20.50
2022-08-19T20:21:57.273Z,20.50
2022-08-19T20:24:31.281Z,20.50
2022-08-19T20:27:00.475Z,20.40
2022-08-19T20:29:39.032Z,20.40
2022-08-19T20:32:10.272Z,20.30
2022-08-19T20:34:39.220Z,20.30
2022-08-19T20:37:09.275Z,20.30
2022-08-19T20:39:37.988Z,20.30
2022-08-19T20:42:05.704Z,20.30
2022-08-19T20:44:33.134Z,20.30
2022-08-19T20:47:03.501Z,20.20
2022-08-19T20:49:32.448Z,20.20
2022-08-19T20:52:00.272Z,20.20
2022-08-19T20:54:28.244Z,20.20
2022-08-19T20:56:55.818Z,20.10
2022-08-19T20:59:24.141Z,20.10
2022-08-19T21:01:52.024Z,20.00
2022-08-19T21:04:22.552Z,20.00
2022-08-19T21:06:50.308Z,19.90
2022-08-19T21:09:17.899Z,19.90
2022-08-19T21:11:45.497Z,19.90
2022-08-19T21:14:12.976Z,19.90
2022-08-19T21:16:40.378Z,19.90
2022-08-19T21:19:07.742Z,20.00
2022-08-19T21:21:35.158Z,20.00
2022-08-19T21:24:02.767Z,20.10
2022-08-19T21:26:30.388Z,20.10
2022-08-19T21:28:57.795Z,20.10
2022-08-19T21:31:25.211Z,20.10
2022-08-19T21:33:52.781Z,20.10
2022-08-19T21:36:20.382Z,20.00
2022-08-19T21:38:47.785Z,20.00
2022-08-19T21:41:15.171Z,19.90
2022-08-19T21:43:42.593Z,20.00
2022-08-19T21:46:09.986Z,20.00
2022-08-19T21:48:37.438Z,20.00
2022-08-19T21:51:04.839Z,19.90
2022-08-19T21:53:34.609Z,19.90
2022-08-19T21:56:04.014Z,19.90
2022-08-19T21:58:31.426Z,19.90
2022-08-19T22:00:59.623Z,19.90
2022-08-19T22:03:27.471Z,19.90
2022-08-19T22:05:54.797Z,19.90
2022-08-19T22:08:22.191Z,19.80
2022-08-19T22:10:49.782Z,19.80
2022-08-19T22:13:20.694Z,19.80
2022-08-19T22:15:50.328Z,19.80
2022-08-19T22:18:18.939Z,19.80
2022-08-19T22:20:46.791Z,19.80
2022-08-19T22:23:14.563Z,19.90
2022-08-19T22:25:45.065Z,19.80
2022-08-19T22:28:18.885Z,19.80
2022-08-19T22:30:52.847Z,19.80
2022-08-19T22:33:22.534Z,19.90
2022-08-19T22:35:52.310Z,19.90
2022-08-19T22:38:19.679Z,19.80
2022-08-19T22:40:48.654Z,19.80
2022-08-19T22:43:22.974Z,19.80
2022-08-19T22:45:51.920Z,19.80
2022-08-19T22:48:21.803Z,19.80
2022-08-19T22:51:08.297Z,19.70
2022-08-19T22:53:38.865Z,19.70
2022-08-19T22:56:10.847Z,19.70
2022-08-19T22:58:42.324Z,19.70
2022-08-19T23:01:14.698Z,19.70
2022-08-19T23:03:56.456Z,19.60
2022-08-19T23:06:23.851Z,19.70
2022-08-19T23:09:00.639Z,19.70
2022-08-19T23:11:29.335Z,19.70
2022-08-19T23:13:56.674Z,19.60
2022-08-19T23:16:24.675Z,19.60
2022-08-19T23:18:55.954Z,19.60
2022-08-19T23:21:26.407Z,19.60
2022-08-19T23:23:54.167Z,19.50
2022-08-19T23:26:21.538Z,19.50
2022-08-19T23:29:07.290Z,19.50
2022-08-19T23:31:36.264Z,19.40
2022-08-19T23:34:04.324Z,19.40
2022-08-19T23:36:31.733Z,19.40
2022-08-19T23:38:59.573Z,19.40
2022-08-19T23:41:29.692Z,19.30
2022-08-19T23:43:57.414Z,19.30
2022-08-19T23:46:28.385Z,19.30
2022-08-19T23:48:57.026Z,19.30
2022-08-19T23:51:26.422Z,19.30
2022-08-19T23:53:54.218Z,19.30
2022-08-19T23:56:21.715Z,19.30
2022-08-19T23:58:49.259Z,19.30
